sensor_id;sensor_type;location;lat;lon;timestamp;P1;durP1;ratioP1;P2;durP2;ratioP2
3249;SDS011;1637;42.020;23.992;2023-07-31T00:01:11;7.90;;;5.10;;
3249;SDS011;1637;42.020;23.992;2023-07-31T00:03:38;9.50;;;5.87;;
3249;SDS011;1637;42.020;23.992;2023-07-31T00:06:05;6.13;;;5.17;;
3249;SDS011;1637;42.020;23.992;2023-07-31T00:08:33;6.87;;;5.17;;
3249;SDS011;1637;42.020;23.992;2023-07-31T00:11:00;7.17;;;5.47;;
3249;SDS011;1637;42.020;23.992;2023-07-31T00:13:27;8.30;;;5.13;;
3249;SDS011;1637;42.020;23.992;2023-07-31T00:15:54;5.40;;;4.90;;
3249;SDS011;1637;42.020;23.992;2023-07-31T00:18:21;7.30;;;5.27;;
3249;SDS011;1637;42.020;23.992;2023-07-31T00:20:48;7.23;;;5.60;;
3249;SDS011;1637;42.020;23.992;2023-07-31T00:23:14;7.30;;;6.33;;
3249;SDS011;1637;42.020;23.992;2023-07-31T00:25:43;5.77;;;5.27;;
3249;SDS011;1637;42.020;23.992;2023-07-31T00:28:09;5.90;;;5.30;;
3249;SDS011;1637;42.020;23.992;2023-07-31T00:30:36;8.23;;;4.97;;
3249;SDS011;1637;42.020;23.992;2023-07-31T00:33:04;6.60;;;5.30;;
3249;SDS011;1637;42.020;23.992;2023-07-31T00:35:30;6.10;;;4.83;;
3249;SDS011;1637;42.020;23.992;2023-07-31T00:37:57;9.90;;;5.30;;
3249;SDS011;1637;42.020;23.992;2023-07-31T00:40:25;5.70;;;5.20;;
3249;SDS011;1637;42.020;23.992;2023-07-31T00:42:53;5.53;;;5.03;;
3249;SDS011;1637;42.020;23.992;2023-07-31T00:45:20;6.77;;;5.50;;
3249;SDS011;1637;42.020;23.992;2023-07-31T00:47:52;5.93;;;5.37;;
3249;SDS011;1637;42.020;23.992;2023-07-31T00:50:19;7.47;;;5.97;;
3249;SDS011;1637;42.020;23.992;2023-07-31T00:52:45;5.20;;;4.80;;
3249;SDS011;1637;42.020;23.992;2023-07-31T00:55:12;6.20;;;5.50;;
3249;SDS011;1637;42.020;23.992;2023-07-31T00:57:39;7.27;;;5.40;;
3249;SDS011;1637;42.020;23.992;2023-07-31T01:00:10;5.93;;;5.40;;
3249;SDS011;1637;42.020;23.992;2023-07-31T01:02:37;6.40;;;5.33;;
3249;SDS011;1637;42.020;23.992;2023-07-31T01:05:04;6.73;;;6.13;;
3249;SDS011;1637;42.020;23.992;2023-07-31T01:07:35;7.30;;;5.60;;
3249;SDS011;1637;42.020;23.992;2023-07-31T01:10:11;6.90;;;5.93;;
3249;SDS011;1637;42.020;23.992;2023-07-31T01:12:43;8.47;;;5.20;;
3249;SDS011;1637;42.020;23.992;2023-07-31T01:15:13;22.10;;;6.80;;
3249;SDS011;1637;42.020;23.992;2023-07-31T01:17:40;38.77;;;10.30;;
3249;SDS011;1637;42.020;23.992;2023-07-31T01:20:10;18.80;;;6.50;;
3249;SDS011;1637;42.020;23.992;2023-07-31T01:22:41;22.63;;;7.93;;
3249;SDS011;1637;42.020;23.992;2023-07-31T01:25:33;19.27;;;8.00;;
3249;SDS011;1637;42.020;23.992;2023-07-31T01:28:19;17.80;;;7.10;;
3249;SDS011;1637;42.020;23.992;2023-07-31T01:30:50;21.37;;;8.17;;
3249;SDS011;1637;42.020;23.992;2023-07-31T01:33:18;17.60;;;8.23;;
3249;SDS011;1637;42.020;23.992;2023-07-31T01:35:45;13.90;;;8.07;;
3249;SDS011;1637;42.020;23.992;2023-07-31T01:38:14;13.67;;;7.67;;
3249;SDS011;1637;42.020;23.992;2023-07-31T01:40:41;9.40;;;7.60;;
3249;SDS011;1637;42.020;23.992;2023-07-31T01:43:10;7.03;;;6.20;;
3249;SDS011;1637;42.020;23.992;2023-07-31T01:45:37;10.70;;;6.93;;
3249;SDS011;1637;42.020;23.992;2023-07-31T01:48:04;10.93;;;6.80;;
3249;SDS011;1637;42.020;23.992;2023-07-31T01:50:30;19.83;;;7.63;;
3249;SDS011;1637;42.020;23.992;2023-07-31T01:52:57;13.20;;;7.40;;
3249;SDS011;1637;42.020;23.992;2023-07-31T01:55:24;11.10;;;7.00;;
3249;SDS011;1637;42.020;23.992;2023-07-31T01:57:51;8.10;;;6.67;;
3249;SDS011;1637;42.020;23.992;2023-07-31T02:00:19;10.67;;;7.40;;
3249;SDS011;1637;42.020;23.992;2023-07-31T02:02:46;9.40;;;7.03;;
3249;SDS011;1637;42.020;23.992;2023-07-31T02:05:13;14.23;;;6.87;;
3249;SDS011;1637;42.020;23.992;2023-07-31T02:07:40;9.33;;;6.60;;
3249;SDS011;1637;42.020;23.992;2023-07-31T02:10:07;8.00;;;6.40;;
3249;SDS011;1637;42.020;23.992;2023-07-31T02:12:34;8.47;;;6.90;;
3249;SDS011;1637;42.020;23.992;2023-07-31T02:15:00;9.50;;;6.77;;
3249;SDS011;1637;42.020;23.992;2023-07-31T02:17:29;8.30;;;6.23;;
3249;SDS011;1637;42.020;23.992;2023-07-31T02:19:56;7.10;;;6.20;;
3249;SDS011;1637;42.020;23.992;2023-07-31T02:22:22;8.27;;;6.00;;
3249;SDS011;1637;42.020;23.992;2023-07-31T02:24:49;13.90;;;6.70;;
3249;SDS011;1637;42.020;23.992;2023-07-31T02:27:16;6.70;;;5.77;;
3249;SDS011;1637;42.020;23.992;2023-07-31T02:29:43;8.40;;;6.40;;
3249;SDS011;1637;42.020;23.992;2023-07-31T02:32:10;10.40;;;6.90;;
3249;SDS011;1637;42.020;23.992;2023-07-31T02:34:37;11.20;;;7.87;;
3249;SDS011;1637;42.020;23.992;2023-07-31T02:37:04;7.73;;;7.00;;
3249;SDS011;1637;42.020;23.992;2023-07-31T02:39:31;11.20;;;6.50;;
3249;SDS011;1637;42.020;23.992;2023-07-31T02:41:58;12.53;;;6.83;;
3249;SDS011;1637;42.020;23.992;2023-07-31T02:44:25;10.37;;;7.90;;
3249;SDS011;1637;42.020;23.992;2023-07-31T02:46:52;14.93;;;7.10;;
3249;SDS011;1637;42.020;23.992;2023-07-31T02:49:19;8.40;;;7.03;;
3249;SDS011;1637;42.020;23.992;2023-07-31T02:51:49;10.03;;;7.10;;
3249;SDS011;1637;42.020;23.992;2023-07-31T02:54:16;12.37;;;8.00;;
3249;SDS011;1637;42.020;23.992;2023-07-31T02:56:43;14.03;;;6.87;;
3249;SDS011;1637;42.020;23.992;2023-07-31T02:59:09;7.97;;;6.80;;
3249;SDS011;1637;42.020;23.992;2023-07-31T03:01:36;9.47;;;6.27;;
3249;SDS011;1637;42.020;23.992;2023-07-31T03:04:03;8.23;;;7.40;;
3249;SDS011;1637;42.020;23.992;2023-07-31T03:06:30;9.90;;;7.50;;
3249;SDS011;1637;42.020;23.992;2023-07-31T03:08:58;10.03;;;8.03;;
3249;SDS011;1637;42.020;23.992;2023-07-31T03:11:25;19.77;;;9.00;;
3249;SDS011;1637;42.020;23.992;2023-07-31T03:13:52;16.93;;;6.70;;
3249;SDS011;1637;42.020;23.992;2023-07-31T03:16:19;10.53;;;6.27;;
3249;SDS011;1637;42.020;23.992;2023-07-31T03:18:45;9.23;;;5.63;;
3249;SDS011;1637;42.020;23.992;2023-07-31T03:21:12;14.70;;;6.20;;
3249;SDS011;1637;42.020;23.992;2023-07-31T03:23:39;8.77;;;7.40;;
3249;SDS011;1637;42.020;23.992;2023-07-31T03:26:07;10.63;;;6.50;;
3249;SDS011;1637;42.020;23.992;2023-07-31T03:28:34;8.57;;;7.73;;
3249;SDS011;1637;42.020;23.992;2023-07-31T03:31:01;7.87;;;7.07;;
3249;SDS011;1637;42.020;23.992;2023-07-31T03:33:28;9.13;;;6.87;;
3249;SDS011;1637;42.020;23.992;2023-07-31T03:35:55;10.90;;;7.53;;
3249;SDS011;1637;42.020;23.992;2023-07-31T03:38:21;8.17;;;7.33;;
3249;SDS011;1637;42.020;23.992;2023-07-31T03:40:48;10.60;;;9.00;;
3249;SDS011;1637;42.020;23.992;2023-07-31T03:43:16;8.70;;;7.80;;
3249;SDS011;1637;42.020;23.992;2023-07-31T03:45:43;12.20;;;7.67;;
3249;SDS011;1637;42.020;23.992;2023-07-31T03:48:10;9.77;;;8.00;;
3249;SDS011;1637;42.020;23.992;2023-07-31T03:50:37;9.33;;;8.37;;
3249;SDS011;1637;42.020;23.992;2023-07-31T03:53:04;8.87;;;7.97;;
3249;SDS011;1637;42.020;23.992;2023-07-31T03:55:31;9.77;;;8.27;;
3249;SDS011;1637;42.020;23.992;2023-07-31T03:57:57;10.83;;;7.67;;
3249;SDS011;1637;42.020;23.992;2023-07-31T04:00:26;9.50;;;7.93;;
3249;SDS011;1637;42.020;23.992;2023-07-31T04:02:53;10.40;;;7.77;;
3249;SDS011;1637;42.020;23.992;2023-07-31T04:05:20;8.00;;;6.80;;
3249;SDS011;1637;42.020;23.992;2023-07-31T04:07:47;7.00;;;6.33;;
3249;SDS011;1637;42.020;23.992;2023-07-31T04:10:14;11.83;;;8.03;;
3249;SDS011;1637;42.020;23.992;2023-07-31T04:12:41;12.47;;;8.70;;
3249;SDS011;1637;42.020;23.992;2023-07-31T04:15:08;8.80;;;7.40;;
3249;SDS011;1637;42.020;23.992;2023-07-31T04:17:36;8.80;;;7.93;;
3249;SDS011;1637;42.020;23.992;2023-07-31T04:20:04;8.20;;;7.40;;
3249;SDS011;1637;42.020;23.992;2023-07-31T04:22:31;9.27;;;6.77;;
3249;SDS011;1637;42.020;23.992;2023-07-31T04:24:58;9.23;;;7.73;;
3249;SDS011;1637;42.020;23.992;2023-07-31T04:27:25;8.87;;;7.20;;
3249;SDS011;1637;42.020;23.992;2023-07-31T04:29:52;9.87;;;7.13;;
3249;SDS011;1637;42.020;23.992;2023-07-31T04:32:19;7.57;;;6.83;;
3249;SDS011;1637;42.020;23.992;2023-07-31T04:34:47;11.13;;;7.63;;
3249;SDS011;1637;42.020;23.992;2023-07-31T04:37:14;9.57;;;6.70;;
3249;SDS011;1637;42.020;23.992;2023-07-31T04:39:41;11.40;;;6.67;;
3249;SDS011;1637;42.020;23.992;2023-07-31T04:42:07;7.67;;;6.23;;
3249;SDS011;1637;42.020;23.992;2023-07-31T04:44:35;7.23;;;6.53;;
3249;SDS011;1637;42.020;23.992;2023-07-31T04:47:02;8.93;;;7.43;;
3249;SDS011;1637;42.020;23.992;2023-07-31T04:49:29;7.43;;;6.60;;
3249;SDS011;1637;42.020;23.992;2023-07-31T04:51:57;10.30;;;6.40;;
3249;SDS011;1637;42.020;23.992;2023-07-31T04:54:24;5.97;;;5.40;;
3249;SDS011;1637;42.020;23.992;2023-07-31T04:56:50;9.63;;;6.40;;
3249;SDS011;1637;42.020;23.992;2023-07-31T04:59:17;10.30;;;5.87;;
3249;SDS011;1637;42.020;23.992;2023-07-31T05:01:44;11.50;;;7.13;;
3249;SDS011;1637;42.020;23.992;2023-07-31T05:04:12;25.63;;;16.23;;
3249;SDS011;1637;42.020;23.992;2023-07-31T05:06:39;27.13;;;17.37;;
3249;SDS011;1637;42.020;23.992;2023-07-31T05:09:07;12.30;;;5.90;;
3249;SDS011;1637;42.020;23.992;2023-07-31T05:11:34;19.27;;;15.77;;
3249;SDS011;1637;42.020;23.992;2023-07-31T05:14:01;15.87;;;6.40;;
3249;SDS011;1637;42.020;23.992;2023-07-31T05:16:28;16.53;;;7.33;;
3249;SDS011;1637;42.020;23.992;2023-07-31T05:18:55;16.03;;;8.07;;
3249;SDS011;1637;42.020;23.992;2023-07-31T05:21:22;12.67;;;6.20;;
3249;SDS011;1637;42.020;23.992;2023-07-31T05:23:49;8.03;;;4.80;;
3249;SDS011;1637;42.020;23.992;2023-07-31T05:26:17;13.37;;;3.87;;
3249;SDS011;1637;42.020;23.992;2023-07-31T05:28:44;13.73;;;4.50;;
3249;SDS011;1637;42.020;23.992;2023-07-31T05:31:11;8.77;;;4.80;;
3249;SDS011;1637;42.020;23.992;2023-07-31T05:33:37;4.17;;;3.70;;
3249;SDS011;1637;42.020;23.992;2023-07-31T05:36:04;21.20;;;6.80;;
3249;SDS011;1637;42.020;23.992;2023-07-31T05:38:31;5.00;;;4.13;;
3249;SDS011;1637;42.020;23.992;2023-07-31T05:40:58;4.00;;;3.60;;
3249;SDS011;1637;42.020;23.992;2023-07-31T05:43:26;5.97;;;4.40;;
3249;SDS011;1637;42.020;23.992;2023-07-31T05:45:53;11.67;;;4.70;;
3249;SDS011;1637;42.020;23.992;2023-07-31T05:48:20;6.53;;;5.80;;
3249;SDS011;1637;42.020;23.992;2023-07-31T05:50:46;11.20;;;6.30;;
3249;SDS011;1637;42.020;23.992;2023-07-31T05:53:13;10.00;;;5.40;;
3249;SDS011;1637;42.020;23.992;2023-07-31T05:55:40;23.47;;;5.80;;
3249;SDS011;1637;42.020;23.992;2023-07-31T05:58:07;5.10;;;4.60;;
3249;SDS011;1637;42.020;23.992;2023-07-31T06:00:35;5.60;;;4.93;;
3249;SDS011;1637;42.020;23.992;2023-07-31T06:03:02;8.43;;;4.80;;
3249;SDS011;1637;42.020;23.992;2023-07-31T06:05:29;10.47;;;4.93;;
3249;SDS011;1637;42.020;23.992;2023-07-31T06:07:56;18.63;;;5.73;;
3249;SDS011;1637;42.020;23.992;2023-07-31T06:10:23;9.70;;;5.67;;
3249;SDS011;1637;42.020;23.992;2023-07-31T06:12:50;7.60;;;5.53;;
3249;SDS011;1637;42.020;23.992;2023-07-31T06:15:17;20.33;;;5.50;;
3249;SDS011;1637;42.020;23.992;2023-07-31T06:17:48;10.43;;;4.83;;
3249;SDS011;1637;42.020;23.992;2023-07-31T06:20:14;5.67;;;4.90;;
3249;SDS011;1637;42.020;23.992;2023-07-31T06:22:41;18.57;;;5.40;;
3249;SDS011;1637;42.020;23.992;2023-07-31T06:25:08;12.40;;;5.00;;
3249;SDS011;1637;42.020;23.992;2023-07-31T06:27:35;7.97;;;4.37;;
3249;SDS011;1637;42.020;23.992;2023-07-31T06:30:02;6.00;;;5.40;;
3249;SDS011;1637;42.020;23.992;2023-07-31T06:32:29;24.97;;;7.30;;
3249;SDS011;1637;42.020;23.992;2023-07-31T06:34:58;10.13;;;4.77;;
3249;SDS011;1637;42.020;23.992;2023-07-31T06:37:24;5.90;;;3.87;;
3249;SDS011;1637;42.020;23.992;2023-07-31T06:39:51;6.57;;;3.50;;
3249;SDS011;1637;42.020;23.992;2023-07-31T06:42:18;10.57;;;4.27;;
3249;SDS011;1637;42.020;23.992;2023-07-31T06:44:46;4.70;;;3.70;;
3249;SDS011;1637;42.020;23.992;2023-07-31T06:47:12;4.30;;;3.83;;
3249;SDS011;1637;42.020;23.992;2023-07-31T06:49:39;31.43;;;5.47;;
3249;SDS011;1637;42.020;23.992;2023-07-31T06:52:07;10.07;;;6.13;;
3249;SDS011;1637;42.020;23.992;2023-07-31T06:54:36;10.87;;;5.67;;
3249;SDS011;1637;42.020;23.992;2023-07-31T06:57:03;9.40;;;5.93;;
3249;SDS011;1637;42.020;23.992;2023-07-31T06:59:30;9.37;;;5.67;;
3249;SDS011;1637;42.020;23.992;2023-07-31T07:01:57;26.57;;;7.77;;
3249;SDS011;1637;42.020;23.992;2023-07-31T07:04:23;11.03;;;6.77;;
3249;SDS011;1637;42.020;23.992;2023-07-31T07:06:51;7.30;;;6.60;;
3249;SDS011;1637;42.020;23.992;2023-07-31T07:09:19;10.90;;;7.03;;
3249;SDS011;1637;42.020;23.992;2023-07-31T07:11:46;10.33;;;7.33;;
3249;SDS011;1637;42.020;23.992;2023-07-31T07:14:14;16.10;;;7.70;;
3249;SDS011;1637;42.020;23.992;2023-07-31T07:16:41;10.80;;;8.80;;
3249;SDS011;1637;42.020;23.992;2023-07-31T07:19:08;12.53;;;8.53;;
3249;SDS011;1637;42.020;23.992;2023-07-31T07:21:35;11.10;;;8.83;;
3249;SDS011;1637;42.020;23.992;2023-07-31T07:24:02;15.23;;;8.73;;
3249;SDS011;1637;42.020;23.992;2023-07-31T07:26:30;11.07;;;7.80;;
3249;SDS011;1637;42.020;23.992;2023-07-31T07:28:57;11.53;;;9.17;;
3249;SDS011;1637;42.020;23.992;2023-07-31T07:31:26;10.17;;;8.93;;
3249;SDS011;1637;42.020;23.992;2023-07-31T07:33:53;10.97;;;8.73;;
3249;SDS011;1637;42.020;23.992;2023-07-31T07:36:19;37.87;;;10.40;;
3249;SDS011;1637;42.020;23.992;2023-07-31T07:38:46;9.83;;;7.70;;
3249;SDS011;1637;42.020;23.992;2023-07-31T07:41:13;11.83;;;7.73;;
3249;SDS011;1637;42.020;23.992;2023-07-31T07:43:41;9.50;;;7.63;;
3249;SDS011;1637;42.020;23.992;2023-07-31T07:46:08;11.50;;;8.60;;
3249;SDS011;1637;42.020;23.992;2023-07-31T07:48:35;10.20;;;9.00;;
3249;SDS011;1637;42.020;23.992;2023-07-31T07:51:01;15.10;;;9.70;;
3249;SDS011;1637;42.020;23.992;2023-07-31T07:53:28;15.63;;;10.73;;
3249;SDS011;1637;42.020;23.992;2023-07-31T07:55:55;13.60;;;8.83;;
3249;SDS011;1637;42.020;23.992;2023-07-31T07:58:22;10.40;;;9.40;;
3249;SDS011;1637;42.020;23.992;2023-07-31T08:00:50;11.77;;;8.90;;
3249;SDS011;1637;42.020;23.992;2023-07-31T08:03:17;17.67;;;10.13;;
3249;SDS011;1637;42.020;23.992;2023-07-31T08:05:44;26.97;;;11.70;;
3249;SDS011;1637;42.020;23.992;2023-07-31T08:08:14;16.23;;;11.97;;
3249;SDS011;1637;42.020;23.992;2023-07-31T08:10:41;13.60;;;11.07;;
3249;SDS011;1637;42.020;23.992;2023-07-31T08:13:09;11.83;;;10.60;;
3249;SDS011;1637;42.020;23.992;2023-07-31T08:15:36;15.17;;;10.27;;
3249;SDS011;1637;42.020;23.992;2023-07-31T08:18:04;19.90;;;10.57;;
3249;SDS011;1637;42.020;23.992;2023-07-31T08:20:31;18.33;;;11.77;;
3249;SDS011;1637;42.020;23.992;2023-07-31T08:22:58;11.27;;;9.70;;
3249;SDS011;1637;42.020;23.992;2023-07-31T08:25:25;13.23;;;11.83;;
3249;SDS011;1637;42.020;23.992;2023-07-31T08:27:52;16.90;;;11.73;;
3249;SDS011;1637;42.020;23.992;2023-07-31T08:30:19;33.23;;;14.90;;
3249;SDS011;1637;42.020;23.992;2023-07-31T08:32:46;15.90;;;12.03;;
3249;SDS011;1637;42.020;23.992;2023-07-31T08:35:14;12.23;;;10.93;;
3249;SDS011;1637;42.020;23.992;2023-07-31T08:37:41;13.73;;;11.27;;
3249;SDS011;1637;42.020;23.992;2023-07-31T08:40:08;23.63;;;11.00;;
3249;SDS011;1637;42.020;23.992;2023-07-31T08:42:42;13.20;;;10.37;;
3249;SDS011;1637;42.020;23.992;2023-07-31T08:45:11;10.60;;;8.70;;
3249;SDS011;1637;42.020;23.992;2023-07-31T08:47:40;14.10;;;10.90;;
3249;SDS011;1637;42.020;23.992;2023-07-31T08:50:08;14.60;;;10.17;;
3249;SDS011;1637;42.020;23.992;2023-07-31T08:52:38;9.90;;;8.90;;
3249;SDS011;1637;42.020;23.992;2023-07-31T08:55:05;15.20;;;10.63;;
3249;SDS011;1637;42.020;23.992;2023-07-31T08:57:34;10.53;;;9.43;;
3249;SDS011;1637;42.020;23.992;2023-07-31T09:00:03;15.60;;;11.03;;
3249;SDS011;1637;42.020;23.992;2023-07-31T09:02:34;12.80;;;10.03;;
3249;SDS011;1637;42.020;23.992;2023-07-31T09:05:05;11.00;;;9.60;;
3249;SDS011;1637;42.020;23.992;2023-07-31T09:07:32;11.07;;;9.50;;
3249;SDS011;1637;42.020;23.992;2023-07-31T09:10:02;11.47;;;9.83;;
3249;SDS011;1637;42.020;23.992;2023-07-31T09:12:29;11.23;;;9.73;;
3249;SDS011;1637;42.020;23.992;2023-07-31T09:14:57;11.03;;;7.97;;
3249;SDS011;1637;42.020;23.992;2023-07-31T09:17:30;12.80;;;7.27;;
3249;SDS011;1637;42.020;23.992;2023-07-31T09:19:57;10.80;;;8.37;;
3249;SDS011;1637;42.020;23.992;2023-07-31T09:22:33;26.57;;;8.83;;
3249;SDS011;1637;42.020;23.992;2023-07-31T09:25:09;10.53;;;7.00;;
3249;SDS011;1637;42.020;23.992;2023-07-31T09:27:48;17.57;;;9.07;;
3249;SDS011;1637;42.020;23.992;2023-07-31T09:30:16;9.30;;;8.30;;
3249;SDS011;1637;42.020;23.992;2023-07-31T09:32:44;9.13;;;8.23;;
3249;SDS011;1637;42.020;23.992;2023-07-31T09:35:21;9.23;;;8.30;;
3249;SDS011;1637;42.020;23.992;2023-07-31T09:37:55;8.27;;;7.47;;
3249;SDS011;1637;42.020;23.992;2023-07-31T09:40:26;11.80;;;7.77;;
3249;SDS011;1637;42.020;23.992;2023-07-31T09:42:55;9.90;;;7.83;;
3249;SDS011;1637;42.020;23.992;2023-07-31T09:45:23;10.27;;;7.63;;
3249;SDS011;1637;42.020;23.992;2023-07-31T09:47:50;9.73;;;7.47;;
3249;SDS011;1637;42.020;23.992;2023-07-31T09:50:21;9.97;;;7.87;;
3249;SDS011;1637;42.020;23.992;2023-07-31T09:52:49;9.57;;;7.43;;
3249;SDS011;1637;42.020;23.992;2023-07-31T09:55:15;9.63;;;7.10;;
3249;SDS011;1637;42.020;23.992;2023-07-31T09:57:46;9.20;;;6.57;;
3249;SDS011;1637;42.020;23.992;2023-07-31T10:00:15;12.67;;;7.43;;
3249;SDS011;1637;42.020;23.992;2023-07-31T10:02:44;7.93;;;6.90;;
3249;SDS011;1637;42.020;23.992;2023-07-31T10:05:13;8.27;;;7.43;;
3249;SDS011;1637;42.020;23.992;2023-07-31T10:07:42;7.60;;;6.80;;
3249;SDS011;1637;42.020;23.992;2023-07-31T10:10:11;11.33;;;7.10;;
3249;SDS011;1637;42.020;23.992;2023-07-31T10:12:41;12.13;;;7.60;;
3249;SDS011;1637;42.020;23.992;2023-07-31T10:15:11;6.27;;;5.40;;
3249;SDS011;1637;42.020;23.992;2023-07-31T10:17:39;6.60;;;5.97;;
3249;SDS011;1637;42.020;23.992;2023-07-31T10:20:07;7.23;;;5.80;;
3249;SDS011;1637;42.020;23.992;2023-07-31T10:22:35;8.93;;;6.90;;
3249;SDS011;1637;42.020;23.992;2023-07-31T10:25:02;6.17;;;5.57;;
3249;SDS011;1637;42.020;23.992;2023-07-31T10:27:30;7.60;;;6.17;;
3249;SDS011;1637;42.020;23.992;2023-07-31T10:29:57;7.40;;;6.37;;
3249;SDS011;1637;42.020;23.992;2023-07-31T10:32:27;7.73;;;6.47;;
3249;SDS011;1637;42.020;23.992;2023-07-31T10:34:55;6.03;;;5.53;;
3249;SDS011;1637;42.020;23.992;2023-07-31T10:37:23;6.97;;;5.07;;
3249;SDS011;1637;42.020;23.992;2023-07-31T10:39:57;6.00;;;5.13;;
3249;SDS011;1637;42.020;23.992;2023-07-31T10:42:29;6.33;;;5.67;;
3249;SDS011;1637;42.020;23.992;2023-07-31T10:44:58;5.17;;;4.67;;
3249;SDS011;1637;42.020;23.992;2023-07-31T10:47:27;5.47;;;4.47;;
3249;SDS011;1637;42.020;23.992;2023-07-31T10:52:47;4.77;;;4.27;;
3249;SDS011;1637;42.020;23.992;2023-07-31T10:55:15;6.13;;;4.60;;
3249;SDS011;1637;42.020;23.992;2023-07-31T10:57:53;6.77;;;3.50;;
3249;SDS011;1637;42.020;23.992;2023-07-31T11:00:21;5.13;;;3.00;;
3249;SDS011;1637;42.020;23.992;2023-07-31T11:02:58;3.77;;;3.47;;
3249;SDS011;1637;42.020;23.992;2023-07-31T11:05:43;4.40;;;4.00;;
3249;SDS011;1637;42.020;23.992;2023-07-31T11:08:12;7.93;;;4.87;;
3249;SDS011;1637;42.020;23.992;2023-07-31T11:10:40;5.80;;;3.30;;
3249;SDS011;1637;42.020;23.992;2023-07-31T11:13:07;4.17;;;3.77;;
3249;SDS011;1637;42.020;23.992;2023-07-31T11:15:34;5.57;;;2.47;;
3249;SDS011;1637;42.020;23.992;2023-07-31T11:18:02;3.00;;;2.40;;
3249;SDS011;1637;42.020;23.992;2023-07-31T11:20:31;5.17;;;3.83;;
3249;SDS011;1637;42.020;23.992;2023-07-31T11:22:59;4.53;;;3.30;;
3249;SDS011;1637;42.020;23.992;2023-07-31T11:25:28;5.27;;;3.73;;
3249;SDS011;1637;42.020;23.992;2023-07-31T11:27:56;4.00;;;2.60;;
3249;SDS011;1637;42.020;23.992;2023-07-31T11:30:23;3.80;;;2.63;;
3249;SDS011;1637;42.020;23.992;2023-07-31T11:32:50;4.03;;;3.00;;
3249;SDS011;1637;42.020;23.992;2023-07-31T11:35:19;2.70;;;2.50;;
3249;SDS011;1637;42.020;23.992;2023-07-31T11:37:45;2.50;;;2.30;;
3249;SDS011;1637;42.020;23.992;2023-07-31T11:40:13;2.47;;;2.27;;
3249;SDS011;1637;42.020;23.992;2023-07-31T11:42:40;2.60;;;2.40;;
3249;SDS011;1637;42.020;23.992;2023-07-31T11:45:08;5.23;;;2.20;;
3249;SDS011;1637;42.020;23.992;2023-07-31T11:47:35;2.60;;;2.40;;
3249;SDS011;1637;42.020;23.992;2023-07-31T11:50:04;3.03;;;2.10;;
3249;SDS011;1637;42.020;23.992;2023-07-31T11:52:36;2.67;;;2.43;;
3249;SDS011;1637;42.020;23.992;2023-07-31T11:55:06;5.03;;;2.10;;
3249;SDS011;1637;42.020;23.992;2023-07-31T11:57:35;2.17;;;1.97;;
3249;SDS011;1637;42.020;23.992;2023-07-31T12:00:04;3.20;;;2.70;;
3249;SDS011;1637;42.020;23.992;2023-07-31T12:02:32;2.37;;;1.90;;
3249;SDS011;1637;42.020;23.992;2023-07-31T12:04:59;6.43;;;2.93;;
3249;SDS011;1637;42.020;23.992;2023-07-31T12:07:26;3.60;;;2.10;;
3249;SDS011;1637;42.020;23.992;2023-07-31T12:09:54;4.40;;;2.60;;
3249;SDS011;1637;42.020;23.992;2023-07-31T12:12:22;6.50;;;2.50;;
3249;SDS011;1637;42.020;23.992;2023-07-31T12:14:50;3.13;;;2.50;;
3249;SDS011;1637;42.020;23.992;2023-07-31T12:17:17;1.87;;;1.77;;
3249;SDS011;1637;42.020;23.992;2023-07-31T12:19:45;2.37;;;1.80;;
3249;SDS011;1637;42.020;23.992;2023-07-31T12:22:15;3.40;;;1.90;;
3249;SDS011;1637;42.020;23.992;2023-07-31T12:24:43;2.67;;;2.00;;
3249;SDS011;1637;42.020;23.992;2023-07-31T12:27:12;4.73;;;2.10;;
3249;SDS011;1637;42.020;23.992;2023-07-31T12:29:41;4.57;;;2.00;;
3249;SDS011;1637;42.020;23.992;2023-07-31T12:32:21;4.73;;;2.30;;
3249;SDS011;1637;42.020;23.992;2023-07-31T12:34:49;3.40;;;2.10;;
3249;SDS011;1637;42.020;23.992;2023-07-31T12:37:16;4.10;;;2.03;;
3249;SDS011;1637;42.020;23.992;2023-07-31T12:39:43;2.23;;;2.03;;
3249;SDS011;1637;42.020;23.992;2023-07-31T12:42:09;2.50;;;2.10;;
3249;SDS011;1637;42.020;23.992;2023-07-31T12:44:38;4.10;;;2.00;;
3249;SDS011;1637;42.020;23.992;2023-07-31T12:47:05;4.57;;;2.13;;
3249;SDS011;1637;42.020;23.992;2023-07-31T12:49:32;2.90;;;2.00;;
3249;SDS011;1637;42.020;23.992;2023-07-31T12:51:58;3.93;;;2.47;;
3249;SDS011;1637;42.020;23.992;2023-07-31T12:54:25;2.13;;;1.93;;
3249;SDS011;1637;42.020;23.992;2023-07-31T12:56:52;2.20;;;1.60;;
3249;SDS011;1637;42.020;23.992;2023-07-31T12:59:20;3.13;;;2.00;;
3249;SDS011;1637;42.020;23.992;2023-07-31T13:01:47;2.90;;;1.80;;
3249;SDS011;1637;42.020;23.992;2023-07-31T13:04:14;2.40;;;1.80;;
3249;SDS011;1637;42.020;23.992;2023-07-31T13:06:41;2.37;;;2.17;;
3249;SDS011;1637;42.020;23.992;2023-07-31T13:09:07;2.60;;;1.87;;
3249;SDS011;1637;42.020;23.992;2023-07-31T13:11:34;3.97;;;1.60;;
3249;SDS011;1637;42.020;23.992;2023-07-31T13:14:01;2.80;;;2.13;;
3249;SDS011;1637;42.020;23.992;2023-07-31T13:16:29;2.00;;;1.80;;
3249;SDS011;1637;42.020;23.992;2023-07-31T13:18:56;2.13;;;1.83;;
3249;SDS011;1637;42.020;23.992;2023-07-31T13:21:23;3.50;;;2.00;;
3249;SDS011;1637;42.020;23.992;2023-07-31T13:23:50;7.73;;;2.97;;
3249;SDS011;1637;42.020;23.992;2023-07-31T13:26:17;4.50;;;2.20;;
3249;SDS011;1637;42.020;23.992;2023-07-31T13:28:43;2.77;;;2.43;;
3249;SDS011;1637;42.020;23.992;2023-07-31T13:31:10;1.80;;;1.70;;
3249;SDS011;1637;42.020;23.992;2023-07-31T13:33:38;4.03;;;2.13;;
3249;SDS011;1637;42.020;23.992;2023-07-31T13:36:05;2.40;;;1.90;;
3249;SDS011;1637;42.020;23.992;2023-07-31T13:38:32;2.97;;;2.37;;
3249;SDS011;1637;42.020;23.992;2023-07-31T13:40:59;5.97;;;2.23;;
3249;SDS011;1637;42.020;23.992;2023-07-31T13:43:26;3.77;;;2.50;;
3249;SDS011;1637;42.020;23.992;2023-07-31T13:45:52;2.47;;;2.13;;
3249;SDS011;1637;42.020;23.992;2023-07-31T13:48:18;3.60;;;2.37;;
3249;SDS011;1637;42.020;23.992;2023-07-31T13:50:47;3.80;;;2.57;;
3249;SDS011;1637;42.020;23.992;2023-07-31T13:53:13;5.10;;;2.17;;
3249;SDS011;1637;42.020;23.992;2023-07-31T13:55:40;2.40;;;2.20;;
3249;SDS011;1637;42.020;23.992;2023-07-31T13:58:10;2.20;;;2.00;;
3249;SDS011;1637;42.020;23.992;2023-07-31T14:00:37;2.30;;;2.10;;
3249;SDS011;1637;42.020;23.992;2023-07-31T14:03:04;2.73;;;2.03;;
3249;SDS011;1637;42.020;23.992;2023-07-31T14:05:31;5.00;;;2.30;;
3249;SDS011;1637;42.020;23.992;2023-07-31T14:07:59;2.17;;;1.83;;
3249;SDS011;1637;42.020;23.992;2023-07-31T14:10:26;2.20;;;2.00;;
3249;SDS011;1637;42.020;23.992;2023-07-31T14:12:53;2.27;;;1.80;;
3249;SDS011;1637;42.020;23.992;2023-07-31T14:15:20;3.10;;;2.07;;
3249;SDS011;1637;42.020;23.992;2023-07-31T14:17:47;4.03;;;2.00;;
3249;SDS011;1637;42.020;23.992;2023-07-31T14:20:14;4.40;;;3.20;;
3249;SDS011;1637;42.020;23.992;2023-07-31T14:22:41;2.10;;;1.80;;
3249;SDS011;1637;42.020;23.992;2023-07-31T14:25:09;2.83;;;2.63;;
3249;SDS011;1637;42.020;23.992;2023-07-31T14:27:36;7.20;;;3.77;;
3249;SDS011;1637;42.020;23.992;2023-07-31T14:30:03;10.70;;;5.57;;
3249;SDS011;1637;42.020;23.992;2023-07-31T14:32:31;2.00;;;1.80;;
3249;SDS011;1637;42.020;23.992;2023-07-31T14:34:58;3.57;;;2.37;;
3249;SDS011;1637;42.020;23.992;2023-07-31T14:37:25;2.17;;;1.97;;
3249;SDS011;1637;42.020;23.992;2023-07-31T14:39:53;3.07;;;2.30;;
3249;SDS011;1637;42.020;23.992;2023-07-31T14:42:22;3.20;;;2.10;;
3249;SDS011;1637;42.020;23.992;2023-07-31T14:44:49;4.63;;;1.97;;
3249;SDS011;1637;42.020;23.992;2023-07-31T14:47:16;2.10;;;1.90;;
3249;SDS011;1637;42.020;23.992;2023-07-31T14:49:43;2.40;;;2.20;;
3249;SDS011;1637;42.020;23.992;2023-07-31T14:52:09;3.00;;;1.90;;
3249;SDS011;1637;42.020;23.992;2023-07-31T14:54:36;3.37;;;2.13;;
3249;SDS011;1637;42.020;23.992;2023-07-31T14:57:03;3.87;;;1.90;;
3249;SDS011;1637;42.020;23.992;2023-07-31T14:59:32;5.93;;;2.27;;
3249;SDS011;1637;42.020;23.992;2023-07-31T15:01:59;2.17;;;1.70;;